sensor_id;sensor_type;location;lat;lon;timestamp;P1;durP1;ratioP1;P2;durP2;ratioP2
20365;SDS011;10341;49.894;8.822;2023-03-14T00:01:53;1.98;;;0.80;;
20365;SDS011;10341;49.894;8.822;2023-03-14T00:07:12;2.28;;;0.80;;
20365;SDS011;10341;49.894;8.822;2023-03-14T00:12:32;2.10;;;0.60;;
20365;SDS011;10341;49.894;8.822;2023-03-14T00:17:52;3.97;;;0.77;;
20365;SDS011;10341;49.894;8.822;2023-03-14T00:23:12;3.05;;;0.90;;
20365;SDS011;10341;49.894;8.822;2023-03-14T00:28:31;1.90;;;0.60;;
20365;SDS011;10341;49.894;8.822;2023-03-14T00:33:52;4.80;;;0.90;;
20365;SDS011;10341;49.894;8.822;2023-03-14T00:39:12;1.38;;;0.70;;
20365;SDS011;10341;49.894;8.822;2023-03-14T00:44:31;2.97;;;0.70;;
20365;SDS011;10341;49.894;8.822;2023-03-14T00:49:53;1.85;;;0.80;;
20365;SDS011;10341;49.894;8.822;2023-03-14T00:55:13;2.20;;;0.90;;
20365;SDS011;10341;49.894;8.822;2023-03-14T01:00:32;3.05;;;0.88;;
20365;SDS011;10341;49.894;8.822;2023-03-14T01:05:51;1.95;;;0.73;;
20365;SDS011;10341;49.894;8.822;2023-03-14T01:11:13;2.35;;;0.80;;
20365;SDS011;10341;49.894;8.822;2023-03-14T01:16:34;1.60;;;0.93;;
20365;SDS011;10341;49.894;8.822;2023-03-14T01:21:54;2.85;;;0.85;;
20365;SDS011;10341;49.894;8.822;2023-03-14T01:27:13;2.53;;;0.82;;
20365;SDS011;10341;49.894;8.822;2023-03-14T01:32:33;2.55;;;0.88;;
20365;SDS011;10341;49.894;8.822;2023-03-14T01:37:52;1.65;;;0.70;;
20365;SDS011;10341;49.894;8.822;2023-03-14T01:43:16;2.80;;;1.05;;
20365;SDS011;10341;49.894;8.822;2023-03-14T01:48:38;2.70;;;0.73;;
20365;SDS011;10341;49.894;8.822;2023-03-14T01:54:19;2.20;;;1.10;;
20365;SDS011;10341;49.894;8.822;2023-03-14T01:59:48;3.03;;;0.98;;
20365;SDS011;10341;49.894;8.822;2023-03-14T02:05:32;3.20;;;0.82;;
20365;SDS011;10341;49.894;8.822;2023-03-14T02:11:01;5.20;;;0.90;;
20365;SDS011;10341;49.894;8.822;2023-03-14T02:16:42;2.58;;;1.00;;
20365;SDS011;10341;49.894;8.822;2023-03-14T02:22:22;1.77;;;0.80;;
20365;SDS011;10341;49.894;8.822;2023-03-14T02:27:50;1.15;;;0.80;;
20365;SDS011;10341;49.894;8.822;2023-03-14T02:33:11;2.58;;;0.75;;
20365;SDS011;10341;49.894;8.822;2023-03-14T02:38:38;3.33;;;1.00;;
20365;SDS011;10341;49.894;8.822;2023-03-14T02:44:05;2.17;;;0.88;;
20365;SDS011;10341;49.894;8.822;2023-03-14T02:54:45;1.50;;;0.82;;
20365;SDS011;10341;49.894;8.822;2023-03-14T03:00:05;2.90;;;0.63;;
20365;SDS011;10341;49.894;8.822;2023-03-14T03:05:28;2.35;;;0.85;;
20365;SDS011;10341;49.894;8.822;2023-03-14T03:10:48;3.22;;;0.93;;
20365;SDS011;10341;49.894;8.822;2023-03-14T03:16:08;3.30;;;1.02;;
20365;SDS011;10341;49.894;8.822;2023-03-14T03:21:28;2.85;;;1.10;;
20365;SDS011;10341;49.894;8.822;2023-03-14T03:26:47;1.73;;;1.00;;
20365;SDS011;10341;49.894;8.822;2023-03-14T03:32:06;1.80;;;0.90;;
20365;SDS011;10341;49.894;8.822;2023-03-14T03:37:26;2.67;;;0.82;;
20365;SDS011;10341;49.894;8.822;2023-03-14T03:42:45;4.88;;;0.82;;
20365;SDS011;10341;49.894;8.822;2023-03-14T03:48:07;4.97;;;1.20;;
20365;SDS011;10341;49.894;8.822;2023-03-14T03:53:26;2.83;;;0.93;;
20365;SDS011;10341;49.894;8.822;2023-03-14T03:58:46;2.85;;;0.90;;
20365;SDS011;10341;49.894;8.822;2023-03-14T04:04:06;2.65;;;0.90;;
20365;SDS011;10341;49.894;8.822;2023-03-14T04:09:25;3.90;;;0.93;;
20365;SDS011;10341;49.894;8.822;2023-03-14T04:15:10;3.33;;;0.80;;
20365;SDS011;10341;49.894;8.822;2023-03-14T04:20:34;3.17;;;0.70;;
20365;SDS011;10341;49.894;8.822;2023-03-14T04:25:55;5.00;;;0.90;;
20365;SDS011;10341;49.894;8.822;2023-03-14T04:31:17;0.80;;;0.68;;
20365;SDS011;10341;49.894;8.822;2023-03-14T04:36:39;2.03;;;0.90;;
20365;SDS011;10341;49.894;8.822;2023-03-14T04:42:01;4.13;;;0.93;;
20365;SDS011;10341;49.894;8.822;2023-03-14T04:47:21;3.22;;;1.10;;
20365;SDS011;10341;49.894;8.822;2023-03-14T04:52:42;3.67;;;0.93;;
20365;SDS011;10341;49.894;8.822;2023-03-14T04:58:02;2.00;;;0.85;;
20365;SDS011;10341;49.894;8.822;2023-03-14T05:03:21;2.22;;;0.70;;
20365;SDS011;10341;49.894;8.822;2023-03-14T05:09:06;1.85;;;0.80;;
20365;SDS011;10341;49.894;8.822;2023-03-14T05:14:40;2.85;;;0.77;;
20365;SDS011;10341;49.894;8.822;2023-03-14T05:20:06;2.22;;;0.80;;
20365;SDS011;10341;49.894;8.822;2023-03-14T05:25:49;2.90;;;0.80;;
20365;SDS011;10341;49.894;8.822;2023-03-14T05:31:37;1.80;;;0.70;;
20365;SDS011;10341;49.894;8.822;2023-03-14T05:37:29;3.10;;;0.90;;
20365;SDS011;10341;49.894;8.822;2023-03-14T05:43:08;4.45;;;0.70;;
20365;SDS011;10341;49.894;8.822;2023-03-14T05:49:00;3.03;;;1.50;;
20365;SDS011;10341;49.894;8.822;2023-03-14T05:54:31;3.22;;;0.80;;
20365;SDS011;10341;49.894;8.822;2023-03-14T06:00:08;1.60;;;0.77;;
20365;SDS011;10341;49.894;8.822;2023-03-14T06:05:55;1.85;;;0.80;;
20365;SDS011;10341;49.894;8.822;2023-03-14T06:11:16;2.00;;;0.60;;
20365;SDS011;10341;49.894;8.822;2023-03-14T06:16:36;3.90;;;0.98;;
20365;SDS011;10341;49.894;8.822;2023-03-14T06:21:56;2.25;;;0.77;;
20365;SDS011;10341;49.894;8.822;2023-03-14T06:27:17;3.13;;;0.60;;
20365;SDS011;10341;49.894;8.822;2023-03-14T06:32:37;1.60;;;0.73;;
20365;SDS011;10341;49.894;8.822;2023-03-14T06:38:01;1.83;;;0.68;;
20365;SDS011;10341;49.894;8.822;2023-03-14T06:43:20;1.55;;;0.68;;
20365;SDS011;10341;49.894;8.822;2023-03-14T06:48:40;4.30;;;0.73;;
20365;SDS011;10341;49.894;8.822;2023-03-14T06:59:21;1.27;;;0.60;;
20365;SDS011;10341;49.894;8.822;2023-03-14T07:04:41;1.92;;;0.38;;
20365;SDS011;10341;49.894;8.822;2023-03-14T07:10:02;3.13;;;0.65;;
20365;SDS011;10341;49.894;8.822;2023-03-14T07:15:22;2.90;;;0.95;;
20365;SDS011;10341;49.894;8.822;2023-03-14T07:20:47;0.93;;;0.35;;
20365;SDS011;10341;49.894;8.822;2023-03-14T07:26:07;1.48;;;0.60;;
20365;SDS011;10341;49.894;8.822;2023-03-14T07:31:29;3.42;;;0.70;;
20365;SDS011;10341;49.894;8.822;2023-03-14T07:36:49;3.70;;;0.60;;
20365;SDS011;10341;49.894;8.822;2023-03-14T07:42:08;3.05;;;0.60;;
20365;SDS011;10341;49.894;8.822;2023-03-14T07:47:41;1.15;;;0.65;;
20365;SDS011;10341;49.894;8.822;2023-03-14T07:53:01;2.33;;;0.52;;
20365;SDS011;10341;49.894;8.822;2023-03-14T07:58:20;1.73;;;0.73;;
20365;SDS011;10341;49.894;8.822;2023-03-14T08:09:00;0.70;;;0.40;;
20365;SDS011;10341;49.894;8.822;2023-03-14T08:14:20;0.35;;;0.30;;
20365;SDS011;10341;49.894;8.822;2023-03-14T08:19:40;1.23;;;0.40;;
20365;SDS011;10341;49.894;8.822;2023-03-14T08:25:02;0.95;;;0.40;;
20365;SDS011;10341;49.894;8.822;2023-03-14T08:30:22;2.95;;;0.68;;
20365;SDS011;10341;49.894;8.822;2023-03-14T08:35:42;0.65;;;0.40;;
20365;SDS011;10341;49.894;8.822;2023-03-14T08:41:02;1.05;;;0.40;;
20365;SDS011;10341;49.894;8.822;2023-03-14T08:46:22;1.67;;;0.45;;
20365;SDS011;10341;49.894;8.822;2023-03-14T08:51:42;0.50;;;0.30;;
20365;SDS011;10341;49.894;8.822;2023-03-14T08:57:01;1.58;;;0.40;;
20365;SDS011;10341;49.894;8.822;2023-03-14T09:02:21;0.60;;;0.40;;
20365;SDS011;10341;49.894;8.822;2023-03-14T09:07:41;1.20;;;0.75;;
20365;SDS011;10341;49.894;8.822;2023-03-14T09:13:01;1.30;;;0.40;;
20365;SDS011;10341;49.894;8.822;2023-03-14T09:18:20;0.67;;;0.20;;
20365;SDS011;10341;49.894;8.822;2023-03-14T09:23:40;1.40;;;0.30;;
20365;SDS011;10341;49.894;8.822;2023-03-14T09:28:59;1.90;;;0.40;;
20365;SDS011;10341;49.894;8.822;2023-03-14T09:34:19;0.85;;;0.30;;
20365;SDS011;10341;49.894;8.822;2023-03-14T09:39:38;0.60;;;0.30;;
20365;SDS011;10341;49.894;8.822;2023-03-14T09:45:03;0.30;;;0.20;;
20365;SDS011;10341;49.894;8.822;2023-03-14T09:50:26;1.00;;;0.30;;
20365;SDS011;10341;49.894;8.822;2023-03-14T09:56:00;0.45;;;0.22;;
20365;SDS011;10341;49.894;8.822;2023-03-14T10:01:22;0.38;;;0.25;;
20365;SDS011;10341;49.894;8.822;2023-03-14T10:06:44;1.13;;;0.45;;
20365;SDS011;10341;49.894;8.822;2023-03-14T10:12:04;0.65;;;0.30;;
20365;SDS011;10341;49.894;8.822;2023-03-14T10:17:25;1.48;;;0.30;;
20365;SDS011;10341;49.894;8.822;2023-03-14T10:28:11;0.70;;;0.28;;
20365;SDS011;10341;49.894;8.822;2023-03-14T10:33:59;1.50;;;0.30;;
20365;SDS011;10341;49.894;8.822;2023-03-14T10:39:26;0.30;;;0.22;;
20365;SDS011;10341;49.894;8.822;2023-03-14T10:44:49;1.30;;;0.40;;
20365;SDS011;10341;49.894;8.822;2023-03-14T10:50:21;1.48;;;0.30;;
20365;SDS011;10341;49.894;8.822;2023-03-14T10:55:44;0.45;;;0.30;;
20365;SDS011;10341;49.894;8.822;2023-03-14T11:06:39;1.52;;;0.30;;
20365;SDS011;10341;49.894;8.822;2023-03-14T11:24:00;0.40;;;0.30;;
20365;SDS011;10341;49.894;8.822;2023-03-14T11:29:41;1.10;;;0.50;;
20365;SDS011;10341;49.894;8.822;2023-03-14T11:35:17;0.70;;;0.70;;
20365;SDS011;10341;49.894;8.822;2023-03-14T11:40:43;0.55;;;0.40;;
20365;SDS011;10341;49.894;8.822;2023-03-14T11:46:07;1.00;;;0.60;;
20365;SDS011;10341;49.894;8.822;2023-03-14T11:51:38;0.73;;;0.57;;
20365;SDS011;10341;49.894;8.822;2023-03-14T11:57:10;1.60;;;0.52;;
20365;SDS011;10341;49.894;8.822;2023-03-14T12:08:19;2.25;;;0.50;;
20365;SDS011;10341;49.894;8.822;2023-03-14T12:13:41;1.05;;;0.70;;
20365;SDS011;10341;49.894;8.822;2023-03-14T12:19:13;0.70;;;0.70;;
20365;SDS011;10341;49.894;8.822;2023-03-14T12:24:41;1.02;;;0.63;;
20365;SDS011;10341;49.894;8.822;2023-03-14T12:30:14;0.45;;;0.20;;
20365;SDS011;10341;49.894;8.822;2023-03-14T12:46:57;0.75;;;0.20;;
20365;SDS011;10341;49.894;8.822;2023-03-14T12:52:19;0.25;;;0.20;;
20365;SDS011;10341;49.894;8.822;2023-03-14T13:03:42;0.40;;;0.32;;
20365;SDS011;10341;49.894;8.822;2023-03-14T13:14:50;0.65;;;0.30;;
20365;SDS011;10341;49.894;8.822;2023-03-14T13:20:21;0.10;;;0.10;;
20365;SDS011;10341;49.894;8.822;2023-03-14T13:25:47;0.00;;;0.00;;
20365;SDS011;10341;49.894;8.822;2023-03-14T13:31:12;0.40;;;0.17;;
20365;SDS011;10341;49.894;8.822;2023-03-14T13:36:42;0.68;;;0.30;;
20365;SDS011;10341;49.894;8.822;2023-03-14T13:42:02;0.10;;;0.10;;
20365;SDS011;10341;49.894;8.822;2023-03-14T13:47:23;1.17;;;0.30;;
20365;SDS011;10341;49.894;8.822;2023-03-14T13:52:44;1.05;;;0.20;;
20365;SDS011;10341;49.894;8.822;2023-03-14T14:03:23;0.30;;;0.20;;
20365;SDS011;10341;49.894;8.822;2023-03-14T14:08:43;0.20;;;0.20;;
20365;SDS011;10341;49.894;8.822;2023-03-14T14:14:04;0.75;;;0.47;;
20365;SDS011;10341;49.894;8.822;2023-03-14T14:19:27;0.60;;;0.60;;
20365;SDS011;10341;49.894;8.822;2023-03-14T14:24:48;0.50;;;0.50;;
20365;SDS011;10341;49.894;8.822;2023-03-14T14:35:38;0.73;;;0.73;;
20365;SDS011;10341;49.894;8.822;2023-03-14T14:41:01;1.05;;;0.80;;
20365;SDS011;10341;49.894;8.822;2023-03-14T14:46:21;0.55;;;0.50;;
20365;SDS011;10341;49.894;8.822;2023-03-14T14:51:42;1.17;;;0.50;;
20365;SDS011;10341;49.894;8.822;2023-03-14T14:57:04;1.80;;;0.60;;
20365;SDS011;10341;49.894;8.822;2023-03-14T15:02:38;0.70;;;0.70;;
20365;SDS011;10341;49.894;8.822;2023-03-14T15:08:08;2.17;;;0.98;;
20365;SDS011;10341;49.894;8.822;2023-03-14T15:13:31;1.90;;;1.00;;
20365;SDS011;10341;49.894;8.822;2023-03-14T15:18:57;2.30;;;1.10;;
20365;SDS011;10341;49.894;8.822;2023-03-14T15:24:20;0.52;;;0.52;;
20365;SDS011;10341;49.894;8.822;2023-03-14T15:29:39;0.40;;;0.40;;
20365;SDS011;10341;49.894;8.822;2023-03-14T15:34:58;0.40;;;0.40;;
20365;SDS011;10341;49.894;8.822;2023-03-14T15:40:17;0.40;;;0.40;;
20365;SDS011;10341;49.894;8.822;2023-03-14T15:45:37;0.57;;;0.40;;
20365;SDS011;10341;49.894;8.822;2023-03-14T15:50:57;0.52;;;0.50;;
20365;SDS011;10341;49.894;8.822;2023-03-14T15:56:17;0.80;;;0.50;;
20365;SDS011;10341;49.894;8.822;2023-03-14T16:01:37;1.20;;;1.00;;
20365;SDS011;10341;49.894;8.822;2023-03-14T16:06:57;1.15;;;0.70;;
20365;SDS011;10341;49.894;8.822;2023-03-14T16:12:16;0.95;;;0.60;;
20365;SDS011;10341;49.894;8.822;2023-03-14T16:17:35;1.15;;;0.70;;
20365;SDS011;10341;49.894;8.822;2023-03-14T16:22:57;0.63;;;0.60;;
20365;SDS011;10341;49.894;8.822;2023-03-14T16:28:16;0.80;;;0.68;;
20365;SDS011;10341;49.894;8.822;2023-03-14T16:33:36;0.50;;;0.50;;
20365;SDS011;10341;49.894;8.822;2023-03-14T16:38:56;0.55;;;0.55;;
20365;SDS011;10341;49.894;8.822;2023-03-14T16:44:16;1.35;;;0.70;;
20365;SDS011;10341;49.894;8.822;2023-03-14T16:49:36;0.73;;;0.73;;
20365;SDS011;10341;49.894;8.822;2023-03-14T16:54:55;0.63;;;0.60;;
20365;SDS011;10341;49.894;8.822;2023-03-14T17:00:15;3.20;;;0.60;;
20365;SDS011;10341;49.894;8.822;2023-03-14T17:05:35;1.30;;;0.63;;
20365;SDS011;10341;49.894;8.822;2023-03-14T17:10:54;3.08;;;0.80;;
20365;SDS011;10341;49.894;8.822;2023-03-14T17:16:13;0.67;;;0.60;;
20365;SDS011;10341;49.894;8.822;2023-03-14T17:21:32;1.23;;;0.90;;
20365;SDS011;10341;49.894;8.822;2023-03-14T17:26:51;2.20;;;1.10;;
20365;SDS011;10341;49.894;8.822;2023-03-14T17:32:11;1.38;;;0.90;;
20365;SDS011;10341;49.894;8.822;2023-03-14T17:37:31;0.40;;;0.40;;
20365;SDS011;10341;49.894;8.822;2023-03-14T17:42:50;1.40;;;0.60;;
20365;SDS011;10341;49.894;8.822;2023-03-14T17:48:10;0.47;;;0.47;;
20365;SDS011;10341;49.894;8.822;2023-03-14T17:53:31;0.50;;;0.50;;
20365;SDS011;10341;49.894;8.822;2023-03-14T17:58:51;1.95;;;0.40;;
20365;SDS011;10341;49.894;8.822;2023-03-14T18:04:11;1.10;;;0.80;;
20365;SDS011;10341;49.894;8.822;2023-03-14T18:09:32;0.50;;;0.50;;
20365;SDS011;10341;49.894;8.822;2023-03-14T18:14:51;1.48;;;0.80;;
20365;SDS011;10341;49.894;8.822;2023-03-14T18:20:11;1.48;;;0.98;;
20365;SDS011;10341;49.894;8.822;2023-03-14T18:25:30;2.47;;;1.80;;
20365;SDS011;10341;49.894;8.822;2023-03-14T18:30:51;1.92;;;1.50;;
20365;SDS011;10341;49.894;8.822;2023-03-14T18:36:11;1.60;;;1.40;;
20365;SDS011;10341;49.894;8.822;2023-03-14T18:41:30;2.50;;;1.83;;
20365;SDS011;10341;49.894;8.822;2023-03-14T18:46:50;1.50;;;1.10;;
20365;SDS011;10341;49.894;8.822;2023-03-14T18:52:10;1.50;;;1.40;;
20365;SDS011;10341;49.894;8.822;2023-03-14T18:57:29;1.47;;;1.20;;
20365;SDS011;10341;49.894;8.822;2023-03-14T19:02:49;2.17;;;1.42;;
20365;SDS011;10341;49.894;8.822;2023-03-14T19:08:10;3.28;;;1.60;;
20365;SDS011;10341;49.894;8.822;2023-03-14T19:13:32;1.95;;;1.00;;
20365;SDS011;10341;49.894;8.822;2023-03-14T19:18:52;1.73;;;1.10;;
20365;SDS011;10341;49.894;8.822;2023-03-14T19:24:16;5.13;;;1.50;;
20365;SDS011;10341;49.894;8.822;2023-03-14T19:29:36;3.88;;;1.40;;
20365;SDS011;10341;49.894;8.822;2023-03-14T19:34:59;5.57;;;1.77;;
20365;SDS011;10341;49.894;8.822;2023-03-14T19:40:18;8.13;;;2.13;;
20365;SDS011;10341;49.894;8.822;2023-03-14T19:45:40;3.70;;;1.63;;
20365;SDS011;10341;49.894;8.822;2023-03-14T19:51:00;4.63;;;1.95;;
20365;SDS011;10341;49.894;8.822;2023-03-14T19:56:19;4.97;;;2.00;;
20365;SDS011;10341;49.894;8.822;2023-03-14T20:01:41;7.85;;;2.58;;
20365;SDS011;10341;49.894;8.822;2023-03-14T20:07:04;5.95;;;2.88;;
20365;SDS011;10341;49.894;8.822;2023-03-14T20:12:23;9.20;;;2.40;;
20365;SDS011;10341;49.894;8.822;2023-03-14T20:17:46;5.57;;;2.67;;
20365;SDS011;10341;49.894;8.822;2023-03-14T20:23:06;7.68;;;2.22;;
20365;SDS011;10341;49.894;8.822;2023-03-14T20:28:27;6.90;;;2.67;;
20365;SDS011;10341;49.894;8.822;2023-03-14T20:33:47;4.18;;;2.08;;
20365;SDS011;10341;49.894;8.822;2023-03-14T20:39:06;5.57;;;2.20;;
20365;SDS011;10341;49.894;8.822;2023-03-14T20:44:26;6.38;;;2.25;;
20365;SDS011;10341;49.894;8.822;2023-03-14T20:49:45;9.35;;;2.05;;
20365;SDS011;10341;49.894;8.822;2023-03-14T20:55:04;10.00;;;2.10;;
20365;SDS011;10341;49.894;8.822;2023-03-14T21:00:24;4.55;;;1.75;;
20365;SDS011;10341;49.894;8.822;2023-03-14T21:05:43;4.60;;;1.47;;
20365;SDS011;10341;49.894;8.822;2023-03-14T21:11:04;4.90;;;1.65;;
20365;SDS011;10341;49.894;8.822;2023-03-14T21:16:23;6.93;;;1.90;;
20365;SDS011;10341;49.894;8.822;2023-03-14T21:21:43;9.45;;;2.40;;
20365;SDS011;10341;49.894;8.822;2023-03-14T21:27:02;7.60;;;2.00;;
20365;SDS011;10341;49.894;8.822;2023-03-14T21:32:22;5.93;;;1.50;;
20365;SDS011;10341;49.894;8.822;2023-03-14T21:37:41;6.10;;;1.45;;
20365;SDS011;10341;49.894;8.822;2023-03-14T21:43:02;3.47;;;1.60;;
20365;SDS011;10341;49.894;8.822;2023-03-14T21:48:23;7.90;;;2.05;;
20365;SDS011;10341;49.894;8.822;2023-03-14T21:53:42;7.18;;;2.58;;
20365;SDS011;10341;49.894;8.822;2023-03-14T21:59:03;5.70;;;1.75;;
20365;SDS011;10341;49.894;8.822;2023-03-14T22:15:03;6.78;;;2.47;;
20365;SDS011;10341;49.894;8.822;2023-03-14T22:20:24;3.35;;;1.55;;
20365;SDS011;10341;49.894;8.822;2023-03-14T22:25:45;5.28;;;1.50;;
20365;SDS011;10341;49.894;8.822;2023-03-14T22:31:08;4.63;;;1.30;;
20365;SDS011;10341;49.894;8.822;2023-03-14T22:36:28;3.42;;;1.73;;
20365;SDS011;10341;49.894;8.822;2023-03-14T22:41:47;2.10;;;1.52;;
20365;SDS011;10341;49.894;8.822;2023-03-14T22:47:06;3.93;;;1.77;;
20365;SDS011;10341;49.894;8.822;2023-03-14T22:52:28;4.80;;;1.65;;
20365;SDS011;10341;49.894;8.822;2023-03-14T22:57:49;6.78;;;1.38;;
20365;SDS011;10341;49.894;8.822;2023-03-14T23:03:10;2.33;;;1.55;;
20365;SDS011;10341;49.894;8.822;2023-03-14T23:08:29;6.68;;;1.23;;
20365;SDS011;10341;49.894;8.822;2023-03-14T23:13:50;5.25;;;1.58;;
20365;SDS011;10341;49.894;8.822;2023-03-14T23:24:29;1.52;;;1.20;;
20365;SDS011;10341;49.894;8.822;2023-03-14T23:29:49;6.45;;;1.77;;
20365;SDS011;10341;49.894;8.822;2023-03-14T23:35:09;5.35;;;2.00;;
20365;SDS011;10341;49.894;8.822;2023-03-14T23:40:30;6.80;;;1.77;;
20365;SDS011;10341;49.894;8.822;2023-03-14T23:45:49;5.30;;;1.98;;
20365;SDS011;10341;49.894;8.822;2023-03-14T23:51:11;4.68;;;1.98;;
20365;SDS011;10341;49.894;8.822;2023-03-14T23:56:31;5.93;;;1.60;;
